sensor_id;sensor_type;location;lat;lon;timestamp;pressure;altitude;pressure_sealevel;temperature;humidity
10482;BME280;5288;42.334;23.876;2024-03-23T00:54:25;56343.91;;;-140.56;94.69
10482;BME280;5288;42.334;23.876;2024-03-23T00:56:52;56339.94;;;-140.56;94.40
10482;BME280;5288;42.334;23.876;2024-03-23T00:59:18;56326.13;;;-140.56;94.96
10482;BME280;5288;42.334;23.876;2024-03-23T01:01:47;56345.88;;;-140.56;95.44
10482;BME280;5288;42.334;23.876;2024-03-23T01:04:13;56381.44;;;-140.56;95.05
10482;BME280;5288;42.334;23.876;2024-03-23T01:06:40;56345.88;;;-140.56;94.62
10482;BME280;5288;42.334;23.876;2024-03-23T01:09:07;56345.88;;;-140.56;95.77
10482;BME280;5288;42.334;23.876;2024-03-23T01:11:36;56296.47;;;-140.56;96.42
10482;BME280;5288;42.334;23.876;2024-03-23T01:14:02;56365.66;;;-140.56;97.22
10482;BME280;5288;42.334;23.876;2024-03-23T01:16:29;56371.56;;;-140.56;98.54
10482;BME280;5288;42.334;23.876;2024-03-23T01:18:55;56312.28;;;-140.56;98.78
10482;BME280;5288;42.334;23.876;2024-03-23T01:21:22;56337.97;;;-140.56;98.71
10482;BME280;5288;42.334;23.876;2024-03-23T01:23:48;56312.28;;;-140.56;99.71
10482;BME280;5288;42.334;23.876;2024-03-23T01:26:17;56359.72;;;-140.56;99.50
10482;BME280;5288;42.334;23.876;2024-03-23T01:28:43;56330.06;;;-140.56;100.00
10482;BME280;5288;42.334;23.876;2024-03-23T01:31:10;56355.75;;;-140.56;100.00
10482;BME280;5288;42.334;23.876;2024-03-23T01:33:36;56339.94;;;-140.56;100.00
10482;BME280;5288;42.334;23.876;2024-03-23T01:36:03;56365.66;;;-140.56;100.00
10482;BME280;5288;42.334;23.876;2024-03-23T01:38:30;56375.53;;;-140.56;100.00
10482;BME280;5288;42.334;23.876;2024-03-23T01:40:57;56375.53;;;-140.56;100.00
10482;BME280;5288;42.334;23.876;2024-03-23T01:43:25;56357.75;;;-140.56;100.00
10482;BME280;5288;42.334;23.876;2024-03-23T01:45:52;56339.94;;;-140.56;100.00
10482;BME280;5288;42.334;23.876;2024-03-23T01:48:19;56361.69;;;-140.56;100.00
10482;BME280;5288;42.334;23.876;2024-03-23T01:50:46;56369.59;;;-140.56;100.00
10482;BME280;5288;42.334;23.876;2024-03-23T01:53:14;56334.03;;;-140.56;100.00
10482;BME280;5288;42.334;23.876;2024-03-23T01:55:43;56345.88;;;-140.56;100.00
10482;BME280;5288;42.334;23.876;2024-03-23T01:58:09;56339.94;;;-140.56;100.00
10482;BME280;5288;42.334;23.876;2024-03-23T02:00:37;56334.03;;;-140.56;100.00
10482;BME280;5288;42.334;23.876;2024-03-23T02:03:22;56324.13;;;-140.56;100.00
10482;BME280;5288;42.334;23.876;2024-03-23T02:05:50;56387.38;;;-140.56;100.00
10482;BME280;5288;42.334;23.876;2024-03-23T02:08:17;56330.06;;;-140.56;100.00
10482;BME280;5288;42.334;23.876;2024-03-23T02:10:44;56353.78;;;-140.56;100.00
10482;BME280;5288;42.334;23.876;2024-03-23T02:13:10;56369.59;;;-140.56;100.00
10482;BME280;5288;42.334;23.876;2024-03-23T02:15:39;56359.72;;;-140.56;100.00
10482;BME280;5288;42.334;23.876;2024-03-23T02:18:07;56339.94;;;-140.56;100.00
10482;BME280;5288;42.334;23.876;2024-03-23T02:20:34;56302.41;;;-140.56;99.24
10482;BME280;5288;42.334;23.876;2024-03-23T02:23:01;56341.94;;;-140.56;100.00
10482;BME280;5288;42.334;23.876;2024-03-23T02:25:28;56357.75;;;-140.56;100.00
10482;BME280;5288;42.334;23.876;2024-03-23T02:27:54;56355.75;;;-140.56;100.00
10482;BME280;5288;42.334;23.876;2024-03-23T02:30:21;56353.78;;;-140.56;100.00
10482;BME280;5288;42.334;23.876;2024-03-23T02:32:47;56345.88;;;-140.56;100.00
10482;BME280;5288;42.334;23.876;2024-03-23T02:35:14;56334.03;;;-140.56;100.00
10482;BME280;5288;42.334;23.876;2024-03-23T02:37:40;56343.91;;;-140.56;100.00
10482;BME280;5288;42.334;23.876;2024-03-23T02:40:09;56367.63;;;-140.56;100.00
10482;BME280;5288;42.334;23.876;2024-03-23T02:42:35;56337.97;;;-140.56;100.00
10482;BME280;5288;42.334;23.876;2024-03-23T02:45:02;56377.50;;;-140.56;100.00
10482;BME280;5288;42.334;23.876;2024-03-23T02:47:30;56316.25;;;-140.56;100.00
10482;BME280;5288;42.334;23.876;2024-03-23T02:49:57;56334.03;;;-140.56;100.00
10482;BME280;5288;42.334;23.876;2024-03-23T02:52:23;56334.03;;;-140.56;100.00
10482;BME280;5288;42.334;23.876;2024-03-23T02:54:50;56326.13;;;-140.56;100.00
10482;BME280;5288;42.334;23.876;2024-03-23T02:57:17;56347.84;;;-140.56;100.00
10482;BME280;5288;42.334;23.876;2024-03-23T02:59:45;56324.13;;;-140.56;100.00
10482;BME280;5288;42.334;23.876;2024-03-23T03:02:13;56330.06;;;-140.56;100.00
10482;BME280;5288;42.334;23.876;2024-03-23T03:04:40;56328.09;;;-140.56;100.00
10482;BME280;5288;42.334;23.876;2024-03-23T03:07:06;56369.59;;;-140.56;100.00
10482;BME280;5288;42.334;23.876;2024-03-23T03:09:33;56353.78;;;-140.56;100.00
10482;BME280;5288;42.334;23.876;2024-03-23T03:12:01;56373.56;;;-140.56;100.00
10482;BME280;5288;42.334;23.876;2024-03-23T03:14:30;56361.69;;;-140.56;100.00
10482;BME280;5288;42.334;23.876;2024-03-23T03:16:56;56347.84;;;-140.56;100.00
10482;BME280;5288;42.334;23.876;2024-03-23T03:19:23;56339.94;;;-140.56;100.00
10482;BME280;5288;42.334;23.876;2024-03-23T03:21:49;56373.56;;;-140.56;100.00
10482;BME280;5288;42.334;23.876;2024-03-23T03:24:16;56383.44;;;-140.56;100.00
10482;BME280;5288;42.334;23.876;2024-03-23T03:26:42;56345.88;;;-140.56;100.00
10482;BME280;5288;42.334;23.876;2024-03-23T03:29:09;56381.44;;;-140.56;100.00
10482;BME280;5288;42.334;23.876;2024-03-23T03:31:37;56379.47;;;-140.56;100.00
10482;BME280;5288;42.334;23.876;2024-03-23T03:34:04;56341.94;;;-140.56;100.00
10482;BME280;5288;42.334;23.876;2024-03-23T03:36:30;56375.53;;;-140.56;100.00
10482;BME280;5288;42.334;23.876;2024-03-23T03:38:57;56336.00;;;-140.56;100.00
10482;BME280;5288;42.334;23.876;2024-03-23T03:41:23;56369.59;;;-140.56;100.00
10482;BME280;5288;42.334;23.876;2024-03-23T03:43:50;56353.78;;;-140.56;100.00
10482;BME280;5288;42.334;23.876;2024-03-23T03:46:15;56359.72;;;-140.56;100.00
10482;BME280;5288;42.334;23.876;2024-03-23T03:48:44;56286.59;;;-140.56;100.00
10482;BME280;5288;42.334;23.876;2024-03-23T03:51:10;56373.56;;;-140.56;100.00
10482;BME280;5288;42.334;23.876;2024-03-23T03:53:37;56337.97;;;-140.56;100.00
10482;BME280;5288;42.334;23.876;2024-03-23T03:56:03;56316.25;;;-140.56;100.00
10482;BME280;5288;42.334;23.876;2024-03-23T03:58:30;56369.59;;;-140.56;100.00
10482;BME280;5288;42.334;23.876;2024-03-23T04:00:56;56322.16;;;-140.56;100.00
10482;BME280;5288;42.334;23.876;2024-03-23T04:03:23;56328.09;;;-140.56;100.00
10482;BME280;5288;42.334;23.876;2024-03-23T04:05:53;56337.97;;;-140.56;100.00
10482;BME280;5288;42.334;23.876;2024-03-23T04:08:20;56337.97;;;-140.56;100.00
10482;BME280;5288;42.334;23.876;2024-03-23T04:10:47;56371.56;;;-140.56;100.00
10482;BME280;5288;42.334;23.876;2024-03-23T04:13:14;56345.88;;;-140.56;100.00
10482;BME280;5288;42.334;23.876;2024-03-23T04:15:42;56363.66;;;-140.56;100.00
10482;BME280;5288;42.334;23.876;2024-03-23T04:18:08;56341.94;;;-140.56;100.00
10482;BME280;5288;42.334;23.876;2024-03-23T04:20:35;56365.66;;;-140.56;100.00
10482;BME280;5288;42.334;23.876;2024-03-23T04:23:02;56359.72;;;-140.56;100.00
10482;BME280;5288;42.334;23.876;2024-03-23T04:25:30;56363.66;;;-140.56;100.00
10482;BME280;5288;42.334;23.876;2024-03-23T04:27:57;56349.84;;;-140.56;100.00
10482;BME280;5288;42.334;23.876;2024-03-23T04:30:24;56336.00;;;-140.56;100.00
10482;BME280;5288;42.334;23.876;2024-03-23T04:32:50;56381.44;;;-140.56;100.00
10482;BME280;5288;42.334;23.876;2024-03-23T04:35:17;56351.81;;;-140.56;100.00
10482;BME280;5288;42.334;23.876;2024-03-23T04:37:45;56357.75;;;-140.56;100.00
10482;BME280;5288;42.334;23.876;2024-03-23T04:40:13;56381.44;;;-140.56;100.00
10482;BME280;5288;42.334;23.876;2024-03-23T04:42:40;56351.81;;;-140.56;100.00
10482;BME280;5288;42.334;23.876;2024-03-23T04:45:08;56365.66;;;-140.56;100.00
10482;BME280;5288;42.334;23.876;2024-03-23T04:47:36;56334.03;;;-140.56;100.00
10482;BME280;5288;42.334;23.876;2024-03-23T04:50:05;56336.00;;;-140.56;100.00
10482;BME280;5288;42.334;23.876;2024-03-23T04:52:32;56341.94;;;-140.56;100.00
10482;BME280;5288;42.334;23.876;2024-03-23T04:54:59;56357.75;;;-140.56;100.00
10482;BME280;5288;42.334;23.876;2024-03-23T04:57:28;56353.78;;;-140.56;100.00
10482;BME280;5288;42.334;23.876;2024-03-23T04:59:54;56298.44;;;-140.56;100.00
10482;BME280;5288;42.334;23.876;2024-03-23T05:02:22;56320.19;;;-140.56;100.00
10482;BME280;5288;42.334;23.876;2024-03-23T05:04:47;56361.69;;;-140.56;100.00
10482;BME280;5288;42.334;23.876;2024-03-23T05:07:14;56353.78;;;-140.56;100.00
10482;BME280;5288;42.334;23.876;2024-03-23T05:09:40;56296.47;;;-140.56;100.00
10482;BME280;5288;42.334;23.876;2024-03-23T05:12:07;56341.94;;;-140.56;100.00
10482;BME280;5288;42.334;23.876;2024-03-23T05:14:35;56365.66;;;-140.56;100.00
10482;BME280;5288;42.334;23.876;2024-03-23T05:17:02;56383.44;;;-140.56;100.00
10482;BME280;5288;42.334;23.876;2024-03-23T05:19:30;56339.94;;;-140.56;100.00
10482;BME280;5288;42.334;23.876;2024-03-23T05:21:56;56357.75;;;-140.56;100.00
10482;BME280;5288;42.334;23.876;2024-03-23T05:24:22;56379.47;;;-140.56;100.00
10482;BME280;5288;42.334;23.876;2024-03-23T05:26:50;56337.97;;;-140.56;100.00
10482;BME280;5288;42.334;23.876;2024-03-23T05:29:15;56334.03;;;-140.56;100.00
10482;BME280;5288;42.334;23.876;2024-03-23T05:31:44;56373.56;;;-140.56;100.00
10482;BME280;5288;42.334;23.876;2024-03-23T05:34:14;56330.06;;;-140.56;100.00
10482;BME280;5288;42.334;23.876;2024-03-23T05:36:42;56399.25;;;-140.56;100.00
10482;BME280;5288;42.334;23.876;2024-03-23T05:39:07;56298.44;;;-140.56;100.00
10482;BME280;5288;42.334;23.876;2024-03-23T05:41:34;56363.66;;;-140.56;100.00
10482;BME280;5288;42.334;23.876;2024-03-23T05:44:02;56385.41;;;-140.56;100.00
10482;BME280;5288;42.334;23.876;2024-03-23T05:46:29;56320.19;;;-140.56;100.00
10482;BME280;5288;42.334;23.876;2024-03-23T05:49:01;56353.78;;;-140.56;100.00
10482;BME280;5288;42.334;23.876;2024-03-23T05:51:29;56339.94;;;-140.56;100.00
10482;BME280;5288;42.334;23.876;2024-03-23T05:53:55;56371.56;;;-140.56;100.00
10482;BME280;5288;42.334;23.876;2024-03-23T05:56:22;56336.00;;;-140.56;100.00
10482;BME280;5288;42.334;23.876;2024-03-23T05:58:48;56347.84;;;-140.56;100.00
10482;BME280;5288;42.334;23.876;2024-03-23T06:01:15;56332.03;;;-140.56;100.00
10482;BME280;5288;42.334;23.876;2024-03-23T06:03:41;56369.59;;;-140.56;100.00
10482;BME280;5288;42.334;23.876;2024-03-23T06:06:10;56371.56;;;-140.56;100.00
10482;BME280;5288;42.334;23.876;2024-03-23T06:08:38;56330.06;;;-140.56;100.00
10482;BME280;5288;42.334;23.876;2024-03-23T06:11:06;56337.97;;;-140.56;100.00
10482;BME280;5288;42.334;23.876;2024-03-23T06:13:32;56359.72;;;-140.56;100.00
10482;BME280;5288;42.334;23.876;2024-03-23T06:15:59;56365.66;;;-140.56;99.58
10482;BME280;5288;42.334;23.876;2024-03-23T06:18:25;56357.75;;;-140.56;98.20
10482;BME280;5288;42.334;23.876;2024-03-23T06:20:53;56304.38;;;-140.56;96.20
10482;BME280;5288;42.334;23.876;2024-03-23T06:23:20;56318.22;;;-140.56;95.15
10482;BME280;5288;42.334;23.876;2024-03-23T06:25:47;56336.00;;;-140.56;94.51
10482;BME280;5288;42.334;23.876;2024-03-23T06:28:14;56336.00;;;-140.56;93.34
10482;BME280;5288;42.334;23.876;2024-03-23T06:30:41;56310.31;;;-140.56;91.27
10482;BME280;5288;42.334;23.876;2024-03-23T06:33:07;56334.03;;;-140.56;91.32
10482;BME280;5288;42.334;23.876;2024-03-23T06:35:34;56292.53;;;-140.56;89.90
10482;BME280;5288;42.334;23.876;2024-03-23T06:38:00;56320.19;;;-140.56;86.50
10482;BME280;5288;42.334;23.876;2024-03-23T06:40:28;56290.53;;;-140.56;85.98
10482;BME280;5288;42.334;23.876;2024-03-23T06:42:54;56296.47;;;-140.56;86.44
10482;BME280;5288;42.334;23.876;2024-03-23T06:45:21;56320.19;;;-140.56;84.82
10482;BME280;5288;42.334;23.876;2024-03-23T06:47:49;56270.78;;;-140.56;83.22
10482;BME280;5288;42.334;23.876;2024-03-23T06:50:17;56296.47;;;-140.56;83.71
10482;BME280;5288;42.334;23.876;2024-03-23T06:52:42;56276.72;;;-140.56;81.78
10482;BME280;5288;42.334;23.876;2024-03-23T06:55:09;56298.44;;;-140.56;80.43
10482;BME280;5288;42.334;23.876;2024-03-23T06:57:37;56304.38;;;-140.56;79.76
10482;BME280;5288;42.334;23.876;2024-03-23T07:00:05;56286.59;;;-140.56;78.98
10482;BME280;5288;42.334;23.876;2024-03-23T07:02:35;56302.41;;;-140.56;75.50
10482;BME280;5288;42.334;23.876;2024-03-23T07:05:02;56278.69;;;-140.56;74.50
10482;BME280;5288;42.334;23.876;2024-03-23T07:07:28;56258.94;;;-140.56;73.20
10482;BME280;5288;42.334;23.876;2024-03-23T07:09:55;56306.34;;;-140.56;72.66
10482;BME280;5288;42.334;23.876;2024-03-23T07:12:21;56286.59;;;-140.56;68.48
10482;BME280;5288;42.334;23.876;2024-03-23T07:14:50;56290.53;;;-140.56;65.99
10482;BME280;5288;42.334;23.876;2024-03-23T07:17:16;56286.59;;;-140.56;65.54
10482;BME280;5288;42.334;23.876;2024-03-23T07:19:43;56266.81;;;-140.56;62.28
10482;BME280;5288;42.334;23.876;2024-03-23T07:22:09;56243.13;;;-140.56;59.12
10482;BME280;5288;42.334;23.876;2024-03-23T07:24:36;56231.25;;;-140.56;59.45
10482;BME280;5288;42.334;23.876;2024-03-23T07:27:05;56264.84;;;-140.56;56.69
10482;BME280;5288;42.334;23.876;2024-03-23T07:29:31;56258.94;;;-140.56;54.41
10482;BME280;5288;42.334;23.876;2024-03-23T07:31:59;56245.09;;;-140.56;52.33
10482;BME280;5288;42.334;23.876;2024-03-23T07:34:25;56211.50;;;-140.56;50.38
10482;BME280;5288;42.334;23.876;2024-03-23T07:36:52;56237.19;;;-140.56;49.15
10482;BME280;5288;42.334;23.876;2024-03-23T07:39:18;56221.38;;;-140.56;48.25
10482;BME280;5288;42.334;23.876;2024-03-23T07:41:45;56205.56;;;-140.56;46.99
10482;BME280;5288;42.334;23.876;2024-03-23T07:44:11;56209.50;;;-140.56;45.74
10482;BME280;5288;42.334;23.876;2024-03-23T07:46:38;56201.63;;;-140.56;44.62
10482;BME280;5288;42.334;23.876;2024-03-23T07:49:06;56187.78;;;-140.56;45.31
10482;BME280;5288;42.334;23.876;2024-03-23T07:51:33;56207.53;;;-140.56;44.53
10482;BME280;5288;42.334;23.876;2024-03-23T07:54:00;56203.59;;;-140.56;44.51
10482;BME280;5288;42.334;23.876;2024-03-23T07:56:27;56205.56;;;-140.56;43.36
10482;BME280;5288;42.334;23.876;2024-03-23T07:58:53;56187.78;;;-140.56;41.50
10482;BME280;5288;42.334;23.876;2024-03-23T08:01:20;56201.63;;;-140.56;42.29
10482;BME280;5288;42.334;23.876;2024-03-23T08:03:46;56177.91;;;-140.56;42.17
10482;BME280;5288;42.334;23.876;2024-03-23T08:06:17;56189.75;;;-140.56;42.97
10482;BME280;5288;42.334;23.876;2024-03-23T08:08:44;56150.22;;;-140.56;42.61
10482;BME280;5288;42.334;23.876;2024-03-23T08:11:11;56183.81;;;-140.56;39.98
10482;BME280;5288;42.334;23.876;2024-03-23T08:13:39;56171.97;;;-140.56;40.99
10482;BME280;5288;42.334;23.876;2024-03-23T08:16:06;56142.31;;;-140.56;40.96
10482;BME280;5288;42.334;23.876;2024-03-23T08:18:33;56162.09;;;-140.56;38.98
10482;BME280;5288;42.334;23.876;2024-03-23T08:21:01;56164.06;;;-140.56;40.19
10482;BME280;5288;42.334;23.876;2024-03-23T08:23:31;56152.22;;;-140.56;40.08
10482;BME280;5288;42.334;23.876;2024-03-23T08:25:59;56132.44;;;-140.56;38.52
10482;BME280;5288;42.334;23.876;2024-03-23T08:28:26;56152.22;;;-140.56;38.71
10482;BME280;5288;42.334;23.876;2024-03-23T08:30:54;56168.00;;;-140.56;38.71
10482;BME280;5288;42.334;23.876;2024-03-23T08:33:20;56146.28;;;-140.56;37.71
10482;BME280;5288;42.334;23.876;2024-03-23T08:35:54;56138.38;;;-140.56;38.50
10482;BME280;5288;42.334;23.876;2024-03-23T08:38:20;56104.78;;;-140.56;37.53
10482;BME280;5288;42.334;23.876;2024-03-23T08:40:56;56098.84;;;-140.56;36.90
10482;BME280;5288;42.334;23.876;2024-03-23T08:43:22;56122.56;;;-140.56;35.67
10482;BME280;5288;42.334;23.876;2024-03-23T08:45:49;56114.66;;;-140.56;35.45
10482;BME280;5288;42.334;23.876;2024-03-23T08:48:15;56124.53;;;-140.56;36.38
10482;BME280;5288;42.334;23.876;2024-03-23T08:50:43;56124.53;;;-140.56;35.31
10482;BME280;5288;42.334;23.876;2024-03-23T08:53:09;56112.69;;;-140.56;35.77
10482;BME280;5288;42.334;23.876;2024-03-23T08:55:36;56112.69;;;-140.56;34.92
10482;BME280;5288;42.334;23.876;2024-03-23T08:58:04;56124.53;;;-140.56;35.16
10482;BME280;5288;42.334;23.876;2024-03-23T09:00:34;56120.59;;;-140.56;35.31
10482;BME280;5288;42.334;23.876;2024-03-23T09:03:00;56110.72;;;-140.56;34.83
10482;BME280;5288;42.334;23.876;2024-03-23T09:05:30;56126.50;;;-140.56;35.38
10482;BME280;5288;42.334;23.876;2024-03-23T09:08:01;56108.72;;;-140.56;34.93
10482;BME280;5288;42.334;23.876;2024-03-23T09:10:28;56112.69;;;-140.56;35.71
10482;BME280;5288;42.334;23.876;2024-03-23T09:12:56;56124.53;;;-140.56;35.24
10482;BME280;5288;42.334;23.876;2024-03-23T09:15:24;56100.81;;;-140.56;34.86
10482;BME280;5288;42.334;23.876;2024-03-23T09:17:50;56098.84;;;-140.56;34.71
10482;BME280;5288;42.334;23.876;2024-03-23T09:20:17;56116.63;;;-140.56;35.02
10482;BME280;5288;42.334;23.876;2024-03-23T09:22:43;56124.53;;;-140.56;34.91
10482;BME280;5288;42.334;23.876;2024-03-23T09:25:13;56092.91;;;-140.56;34.24
10482;BME280;5288;42.334;23.876;2024-03-23T09:27:39;56085.00;;;-140.56;34.15
10482;BME280;5288;42.334;23.876;2024-03-23T09:30:07;56092.91;;;-140.56;34.47
10482;BME280;5288;42.334;23.876;2024-03-23T09:32:35;56047.47;;;-140.56;34.30
10482;BME280;5288;42.334;23.876;2024-03-23T09:35:03;56055.38;;;-140.56;34.45
10482;BME280;5288;42.334;23.876;2024-03-23T09:37:29;56055.38;;;-140.56;34.06
10482;BME280;5288;42.334;23.876;2024-03-23T09:39:56;56102.81;;;-140.56;32.44
10482;BME280;5288;42.334;23.876;2024-03-23T09:42:22;56071.19;;;-140.56;32.37
10482;BME280;5288;42.334;23.876;2024-03-23T09:44:51;56085.00;;;-140.56;31.17
10482;BME280;5288;42.334;23.876;2024-03-23T09:47:17;56081.06;;;-140.56;31.77
10482;BME280;5288;42.334;23.876;2024-03-23T09:49:45;56069.22;;;-140.56;31.39
10482;BME280;5288;42.334;23.876;2024-03-23T09:52:11;56083.03;;;-140.56;30.26
10482;BME280;5288;42.334;23.876;2024-03-23T09:54:38;56051.41;;;-140.56;30.74
10482;BME280;5288;42.334;23.876;2024-03-23T09:57:05;56047.47;;;-140.56;29.54
10482;BME280;5288;42.334;23.876;2024-03-23T09:59:33;56047.47;;;-140.56;31.12
10482;BME280;5288;42.334;23.876;2024-03-23T10:02:00;56061.31;;;-140.56;30.18
10482;BME280;5288;42.334;23.876;2024-03-23T10:04:37;56055.38;;;-140.56;30.42
10482;BME280;5288;42.334;23.876;2024-03-23T10:07:12;56011.91;;;-140.56;29.59
10482;BME280;5288;42.334;23.876;2024-03-23T10:09:40;56057.34;;;-140.56;30.59
10482;BME280;5288;42.334;23.876;2024-03-23T10:12:10;56031.66;;;-140.56;30.02
10482;BME280;5288;42.334;23.876;2024-03-23T10:14:37;56069.22;;;-140.56;28.69
10482;BME280;5288;42.334;23.876;2024-03-23T10:17:22;56055.38;;;-140.56;28.37
10482;BME280;5288;42.334;23.876;2024-03-23T10:19:50;56025.72;;;-140.56;28.04
10482;BME280;5288;42.334;23.876;2024-03-23T10:22:19;56067.22;;;-140.56;28.14
10482;BME280;5288;42.334;23.876;2024-03-23T10:24:47;56009.91;;;-140.56;28.61
10482;BME280;5288;42.334;23.876;2024-03-23T10:27:15;56039.56;;;-140.56;28.17
10482;BME280;5288;42.334;23.876;2024-03-23T10:29:43;56049.44;;;-140.56;27.45
10482;BME280;5288;42.334;23.876;2024-03-23T10:32:09;56053.41;;;-140.56;27.96
10482;BME280;5288;42.334;23.876;2024-03-23T10:34:37;56007.94;;;-140.56;28.23
10482;BME280;5288;42.334;23.876;2024-03-23T10:37:04;56015.84;;;-140.56;27.62
10482;BME280;5288;42.334;23.876;2024-03-23T10:39:35;55986.22;;;-140.56;27.08
10482;BME280;5288;42.334;23.876;2024-03-23T10:42:05;56007.94;;;-140.56;26.52
10482;BME280;5288;42.334;23.876;2024-03-23T10:44:33;56017.81;;;-140.56;27.45
10482;BME280;5288;42.334;23.876;2024-03-23T10:46:59;55994.13;;;-140.56;27.41
10482;BME280;5288;42.334;23.876;2024-03-23T10:49:28;56017.81;;;-140.56;27.54
10482;BME280;5288;42.334;23.876;2024-03-23T10:51:58;56045.50;;;-140.56;27.04
10482;BME280;5288;42.334;23.876;2024-03-23T10:54:26;56019.81;;;-140.56;28.33
10482;BME280;5288;42.334;23.876;2024-03-23T10:56:57;56013.88;;;-140.56;27.32
10482;BME280;5288;42.334;23.876;2024-03-23T10:59:27;56005.97;;;-140.56;26.39
10482;BME280;5288;42.334;23.876;2024-03-23T11:01:56;55976.31;;;-140.56;26.85
10482;BME280;5288;42.334;23.876;2024-03-23T11:04:30;56029.69;;;-140.56;26.82
10482;BME280;5288;42.334;23.876;2024-03-23T11:06:57;56002.00;;;-140.56;26.66
10482;BME280;5288;42.334;23.876;2024-03-23T11:09:40;55972.38;;;-140.56;26.65
10482;BME280;5288;42.334;23.876;2024-03-23T11:12:27;55994.13;;;-140.56;25.99
10482;BME280;5288;42.334;23.876;2024-03-23T11:14:58;56004.00;;;-140.56;26.91
10482;BME280;5288;42.334;23.876;2024-03-23T11:17:26;55984.22;;;-140.56;27.41
10482;BME280;5288;42.334;23.876;2024-03-23T11:19:54;55972.38;;;-140.56;25.53
10482;BME280;5288;42.334;23.876;2024-03-23T11:22:41;56005.97;;;-140.56;26.87
10482;BME280;5288;42.334;23.876;2024-03-23T11:25:15;55978.31;;;-140.56;28.67
10482;BME280;5288;42.334;23.876;2024-03-23T11:27:43;55986.22;;;-140.56;27.93
10482;BME280;5288;42.334;23.876;2024-03-23T11:30:12;56002.00;;;-140.56;27.79
10482;BME280;5288;42.334;23.876;2024-03-23T11:32:39;56007.94;;;-140.56;29.01
10482;BME280;5288;42.334;23.876;2024-03-23T11:35:07;55998.06;;;-140.56;28.16
10482;BME280;5288;42.334;23.876;2024-03-23T11:37:34;55976.31;;;-140.56;28.06
10482;BME280;5288;42.334;23.876;2024-03-23T11:40:17;56005.97;;;-140.56;27.58
10482;BME280;5288;42.334;23.876;2024-03-23T11:42:44;56002.00;;;-140.56;28.82
10482;BME280;5288;42.334;23.876;2024-03-23T11:45:12;55966.44;;;-140.56;28.17
10482;BME280;5288;42.334;23.876;2024-03-23T11:47:38;55974.34;;;-140.56;27.83
10482;BME280;5288;42.334;23.876;2024-03-23T11:50:18;55966.44;;;-140.56;27.34
10482;BME280;5288;42.334;23.876;2024-03-23T11:52:44;55976.31;;;-140.56;27.97
10482;BME280;5288;42.334;23.876;2024-03-23T11:55:11;55966.44;;;-140.56;27.53
10482;BME280;5288;42.334;23.876;2024-03-23T11:57:37;55946.69;;;-140.56;27.56
10482;BME280;5288;42.334;23.876;2024-03-23T12:00:21;55934.81;;;-140.56;27.67
10482;BME280;5288;42.334;23.876;2024-03-23T12:02:48;55934.81;;;-140.56;28.25
10482;BME280;5288;42.334;23.876;2024-03-23T12:05:15;55936.81;;;-140.56;27.70
10482;BME280;5288;42.334;23.876;2024-03-23T12:07:42;55915.06;;;-140.56;26.79
10482;BME280;5288;42.334;23.876;2024-03-23T12:10:09;55944.72;;;-140.56;27.55
10482;BME280;5288;42.334;23.876;2024-03-23T12:12:35;55958.53;;;-140.56;28.05
10482;BME280;5288;42.334;23.876;2024-03-23T12:15:03;55952.63;;;-140.56;27.01
10482;BME280;5288;42.334;23.876;2024-03-23T12:17:32;55986.22;;;-140.56;27.83
10482;BME280;5288;42.334;23.876;2024-03-23T12:20:00;55970.41;;;-140.56;28.44
10482;BME280;5288;42.334;23.876;2024-03-23T12:22:26;55980.28;;;-140.56;27.86
10482;BME280;5288;42.334;23.876;2024-03-23T12:24:55;55978.31;;;-140.56;28.71
10482;BME280;5288;42.334;23.876;2024-03-23T12:27:21;56002.00;;;-140.56;28.41
10482;BME280;5288;42.334;23.876;2024-03-23T12:29:48;55970.41;;;-140.56;28.74
10482;BME280;5288;42.334;23.876;2024-03-23T12:32:14;56007.94;;;-140.56;29.11
10482;BME280;5288;42.334;23.876;2024-03-23T12:34:43;55966.44;;;-140.56;28.67
10482;BME280;5288;42.334;23.876;2024-03-23T12:37:09;55994.13;;;-140.56;28.27
10482;BME280;5288;42.334;23.876;2024-03-23T12:39:38;55980.28;;;-140.56;27.96
10482;BME280;5288;42.334;23.876;2024-03-23T12:42:04;55962.50;;;-140.56;28.18
10482;BME280;5288;42.334;23.876;2024-03-23T12:44:31;55948.66;;;-140.56;28.18
10482;BME280;5288;42.334;23.876;2024-03-23T12:46:57;55968.41;;;-140.56;28.16
10482;BME280;5288;42.334;23.876;2024-03-23T12:49:25;55986.22;;;-140.56;28.66
10482;BME280;5288;42.334;23.876;2024-03-23T12:51:55;55982.25;;;-140.56;28.12
10482;BME280;5288;42.334;23.876;2024-03-23T12:54:23;55952.63;;;-140.56;28.69
10482;BME280;5288;42.334;23.876;2024-03-23T12:56:49;55954.59;;;-140.56;28.27
10482;BME280;5288;42.334;23.876;2024-03-23T12:59:16;55930.88;;;-140.56;27.62
10482;BME280;5288;42.334;23.876;2024-03-23T13:01:44;55954.59;;;-140.56;27.52
10482;BME280;5288;42.334;23.876;2024-03-23T13:04:11;55948.66;;;-140.56;28.65
10482;BME280;5288;42.334;23.876;2024-03-23T13:06:37;55940.75;;;-140.56;28.62
10482;BME280;5288;42.334;23.876;2024-03-23T13:09:05;55940.75;;;-140.56;27.99
10482;BME280;5288;42.334;23.876;2024-03-23T13:11:31;55960.53;;;-140.56;28.69
10482;BME280;5288;42.334;23.876;2024-03-23T13:13:58;55956.56;;;-140.56;28.75
10482;BME280;5288;42.334;23.876;2024-03-23T13:16:25;55974.34;;;-140.56;28.33
10482;BME280;5288;42.334;23.876;2024-03-23T13:18:52;55976.31;;;-140.56;29.01
10482;BME280;5288;42.334;23.876;2024-03-23T13:21:18;55952.63;;;-140.56;27.86
10482;BME280;5288;42.334;23.876;2024-03-23T13:23:47;55954.59;;;-140.56;28.27
10482;BME280;5288;42.334;23.876;2024-03-23T13:26:15;55954.59;;;-140.56;27.96
10482;BME280;5288;42.334;23.876;2024-03-23T13:28:42;55940.75;;;-140.56;27.94
10482;BME280;5288;42.334;23.876;2024-03-23T13:31:08;55966.44;;;-140.56;27.55